KFDK/FDK METAR and TAF weather

Enter ICAO airport designator
Station Type Date Time Source
KFDK METAR 2018/12/15 02:45 UTC NOAA

KFDK 150245Z AUTO 02006KT 3SM -RA OVC020 06/05 A3029 RMK AO2 P0003


Station Type Date Time Source
KFDK Decoded METAR 2018/12/15 02:45 UTC NOAA

Frederick, Frederick Municipal Airport, MD, United States (KFDK) 39-25-03N 077-22-28W
Dec 14, 2018 - 09:45 PM EST / 2018.12.15 0245 UTC
Wind: from the NNE (020 degrees) at 7 MPH (6 KT):0
Visibility: 3 mile(s):0
Sky conditions: overcast
Weather: light rain
Precipitation last hour: 0.03 inches
Temperature: 42 F (6 C)
Dew Point: 41 F (5 C)
Relative Humidity: 93%
Pressure (altimeter): 30.29 in. Hg (1025 hPa)
ob: KFDK 150245Z AUTO 02006KT 3SM -RA OVC020 06/05 A3029 RMK AO2 P0003
cycle: 3

Station Type Date Time Source
KFDK TAF UTC NOAA

Error!


Example: see airport list